sensor_id;sensor_type;location;lat;lon;timestamp;pressure;altitude;pressure_sealevel;temperature;humidity
51468;BME280;37545;45.302;-122.946;2023-01-23T00:01:41;102587.72;;;8.76;86.58
51468;BME280;37545;45.302;-122.946;2023-01-23T00:04:12;102593.06;;;8.79;87.26
51468;BME280;37545;45.302;-122.946;2023-01-23T00:06:41;102582.84;;;8.80;85.51
51468;BME280;37545;45.302;-122.946;2023-01-23T00:09:10;102575.00;;;8.79;86.29
51468;BME280;37545;45.302;-122.946;2023-01-23T00:11:40;102578.41;;;8.78;86.00
51468;BME280;37545;45.302;-122.946;2023-01-23T00:14:09;102586.72;;;8.74;84.85
51468;BME280;37545;45.302;-122.946;2023-01-23T00:16:39;102592.69;;;8.73;85.59
51468;BME280;37545;45.302;-122.946;2023-01-23T00:19:09;102594.34;;;8.72;84.18
51468;BME280;37545;45.302;-122.946;2023-01-23T00:21:38;102602.22;;;8.74;84.78
51468;BME280;37545;45.302;-122.946;2023-01-23T00:24:10;102591.06;;;8.75;84.52
51468;BME280;37545;45.302;-122.946;2023-01-23T00:26:39;102591.06;;;8.75;83.90
51468;BME280;37545;45.302;-122.946;2023-01-23T00:29:08;102591.06;;;8.75;84.42
51468;BME280;37545;45.302;-122.946;2023-01-23T00:31:39;102587.41;;;8.71;84.60
51468;BME280;37545;45.302;-122.946;2023-01-23T00:34:11;102591.88;;;8.74;84.31
51468;BME280;37545;45.302;-122.946;2023-01-23T00:36:42;102593.56;;;8.73;85.07
51468;BME280;37545;45.302;-122.946;2023-01-23T00:39:15;102583.84;;;8.69;85.40
51468;BME280;37545;45.302;-122.946;2023-01-23T00:41:45;102591.09;;;8.62;84.70
51468;BME280;37545;45.302;-122.946;2023-01-23T00:44:14;102583.72;;;8.54;86.55
51468;BME280;37545;45.302;-122.946;2023-01-23T00:46:45;102583.00;;;8.44;86.82
51468;BME280;37545;45.302;-122.946;2023-01-23T00:49:14;102576.38;;;8.35;86.65
51468;BME280;37545;45.302;-122.946;2023-01-23T00:51:43;102583.59;;;8.28;86.22
51468;BME280;37545;45.302;-122.946;2023-01-23T00:54:12;102591.91;;;8.24;88.09
51468;BME280;37545;45.302;-122.946;2023-01-23T00:56:41;102601.47;;;8.25;88.33
51468;BME280;37545;45.302;-122.946;2023-01-23T00:59:09;102597.19;;;8.25;86.80
51468;BME280;37545;45.302;-122.946;2023-01-23T01:01:38;102597.06;;;8.24;86.84
51468;BME280;37545;45.302;-122.946;2023-01-23T01:04:15;102599.53;;;8.22;86.61
51468;BME280;37545;45.302;-122.946;2023-01-23T01:06:44;102596.88;;;8.21;87.57
51468;BME280;37545;45.302;-122.946;2023-01-23T01:09:13;102601.81;;;8.17;86.59
51468;BME280;37545;45.302;-122.946;2023-01-23T01:11:42;102598.25;;;8.15;88.00
51468;BME280;37545;45.302;-122.946;2023-01-23T01:14:10;102598.81;;;8.11;89.31
51468;BME280;37545;45.302;-122.946;2023-01-23T01:16:39;102602.84;;;8.08;89.01
51468;BME280;37545;45.302;-122.946;2023-01-23T01:19:11;102603.53;;;8.05;89.68
51468;BME280;37545;45.302;-122.946;2023-01-23T01:21:41;102595.59;;;8.02;89.44
51468;BME280;37545;45.302;-122.946;2023-01-23T01:24:11;102603.09;;;7.99;91.09
51468;BME280;37545;45.302;-122.946;2023-01-23T01:26:39;102603.47;;;7.92;91.27
51468;BME280;37545;45.302;-122.946;2023-01-23T01:29:08;102605.72;;;7.87;90.92
51468;BME280;37545;45.302;-122.946;2023-01-23T01:31:37;102600.50;;;7.86;91.70
51468;BME280;37545;45.302;-122.946;2023-01-23T01:34:05;102582.78;;;7.79;91.33
51468;BME280;37545;45.302;-122.946;2023-01-23T01:36:34;102585.97;;;7.74;91.62
51468;BME280;37545;45.302;-122.946;2023-01-23T01:39:04;102580.69;;;7.73;92.67
51468;BME280;37545;45.302;-122.946;2023-01-23T01:41:33;102575.22;;;7.68;93.57
51468;BME280;37545;45.302;-122.946;2023-01-23T01:44:02;102591.03;;;7.61;94.46
51468;BME280;37545;45.302;-122.946;2023-01-23T01:46:30;102592.38;;;7.56;95.76
51468;BME280;37545;45.302;-122.946;2023-01-23T01:49:04;102577.56;;;7.53;94.17
51468;BME280;37545;45.302;-122.946;2023-01-23T01:51:37;102578.06;;;7.48;95.18
51468;BME280;37545;45.302;-122.946;2023-01-23T01:54:14;102581.75;;;7.40;95.24
51468;BME280;37545;45.302;-122.946;2023-01-23T01:56:47;102591.06;;;7.38;95.00
51468;BME280;37545;45.302;-122.946;2023-01-23T01:59:17;102591.84;;;7.37;95.08
51468;BME280;37545;45.302;-122.946;2023-01-23T02:01:52;102600.44;;;7.37;95.56
51468;BME280;37545;45.302;-122.946;2023-01-23T02:04:23;102597.88;;;7.37;94.56
51468;BME280;37545;45.302;-122.946;2023-01-23T02:06:53;102588.38;;;7.36;94.34
51468;BME280;37545;45.302;-122.946;2023-01-23T02:09:25;102590.63;;;7.31;95.42
51468;BME280;37545;45.302;-122.946;2023-01-23T02:11:54;102586.03;;;7.27;94.93
51468;BME280;37545;45.302;-122.946;2023-01-23T02:14:22;102597.13;;;7.26;96.81
51468;BME280;37545;45.302;-122.946;2023-01-23T02:16:51;102600.47;;;7.25;96.33
51468;BME280;37545;45.302;-122.946;2023-01-23T02:19:36;102600.47;;;7.25;96.57
51468;BME280;37545;45.302;-122.946;2023-01-23T02:22:15;102604.59;;;7.23;96.82
51468;BME280;37545;45.302;-122.946;2023-01-23T02:24:55;102605.50;;;7.24;96.76
51468;BME280;37545;45.302;-122.946;2023-01-23T02:27:28;102601.16;;;7.23;95.86
51468;BME280;37545;45.302;-122.946;2023-01-23T02:29:57;102601.16;;;7.23;95.98
51468;BME280;37545;45.302;-122.946;2023-01-23T02:32:25;102593.28;;;7.21;96.37
51468;BME280;37545;45.302;-122.946;2023-01-23T02:34:57;102598.34;;;7.20;96.27
51468;BME280;37545;45.302;-122.946;2023-01-23T02:37:28;102595.78;;;7.20;96.50
51468;BME280;37545;45.302;-122.946;2023-01-23T02:40:00;102596.47;;;7.17;96.92
51468;BME280;37545;45.302;-122.946;2023-01-23T02:42:30;102603.19;;;7.15;96.81
51468;BME280;37545;45.302;-122.946;2023-01-23T02:45:00;102589.28;;;7.13;97.09
51468;BME280;37545;45.302;-122.946;2023-01-23T02:47:29;102590.06;;;7.12;97.08
51468;BME280;37545;45.302;-122.946;2023-01-23T02:49:59;102597.00;;;7.13;97.98
51468;BME280;37545;45.302;-122.946;2023-01-23T02:52:27;102587.47;;;7.12;97.25
51468;BME280;37545;45.302;-122.946;2023-01-23T02:54:57;102583.91;;;7.10;97.60
51468;BME280;37545;45.302;-122.946;2023-01-23T02:57:25;102583.81;;;7.08;98.07
51468;BME280;37545;45.302;-122.946;2023-01-23T02:59:56;102593.78;;;7.04;98.83
51468;BME280;37545;45.302;-122.946;2023-01-23T03:02:41;102582.81;;;6.95;100.00
51468;BME280;37545;45.302;-122.946;2023-01-23T03:05:10;102587.69;;;6.91;100.00
51468;BME280;37545;45.302;-122.946;2023-01-23T03:07:39;102592.84;;;6.91;100.00
51468;BME280;37545;45.302;-122.946;2023-01-23T03:10:09;102598.25;;;6.95;100.00
51468;BME280;37545;45.302;-122.946;2023-01-23T03:12:38;102606.84;;;6.95;100.00
51468;BME280;37545;45.302;-122.946;2023-01-23T03:15:11;102600.81;;;6.95;100.00
51468;BME280;37545;45.302;-122.946;2023-01-23T03:17:39;102603.38;;;6.95;100.00
51468;BME280;37545;45.302;-122.946;2023-01-23T03:20:09;102595.66;;;6.95;100.00
51468;BME280;37545;45.302;-122.946;2023-01-23T03:22:37;102583.56;;;6.93;100.00
51468;BME280;37545;45.302;-122.946;2023-01-23T03:25:12;102587.16;;;6.96;100.00
51468;BME280;37545;45.302;-122.946;2023-01-23T03:27:41;102591.53;;;6.97;100.00
51468;BME280;37545;45.302;-122.946;2023-01-23T03:30:12;102600.91;;;6.96;100.00
51468;BME280;37545;45.302;-122.946;2023-01-23T03:32:42;102597.44;;;6.96;100.00
51468;BME280;37545;45.302;-122.946;2023-01-23T03:35:12;102592.28;;;6.96;100.00
51468;BME280;37545;45.302;-122.946;2023-01-23T03:37:42;102587.94;;;6.95;100.00
51468;BME280;37545;45.302;-122.946;2023-01-23T03:40:15;102591.28;;;6.93;100.00
51468;BME280;37545;45.302;-122.946;2023-01-23T03:43:01;102585.03;;;6.90;99.44
51468;BME280;37545;45.302;-122.946;2023-01-23T03:45:31;102593.53;;;6.89;99.94
51468;BME280;37545;45.302;-122.946;2023-01-23T03:48:00;102596.78;;;6.86;99.41
51468;BME280;37545;45.302;-122.946;2023-01-23T03:50:28;102593.97;;;6.83;98.82
51468;BME280;37545;45.302;-122.946;2023-01-23T03:52:58;102596.22;;;6.79;98.64
51468;BME280;37545;45.302;-122.946;2023-01-23T03:55:27;102597.66;;;6.75;99.16
51468;BME280;37545;45.302;-122.946;2023-01-23T03:57:55;102594.72;;;6.70;99.62
51468;BME280;37545;45.302;-122.946;2023-01-23T04:00:24;102596.19;;;6.67;98.33
51468;BME280;37545;45.302;-122.946;2023-01-23T04:02:54;102593.16;;;6.61;99.68
51468;BME280;37545;45.302;-122.946;2023-01-23T04:05:23;102604.00;;;6.57;99.45
51468;BME280;37545;45.302;-122.946;2023-01-23T04:07:51;102608.91;;;6.54;99.69
51468;BME280;37545;45.302;-122.946;2023-01-23T04:10:20;102608.78;;;6.52;100.00
51468;BME280;37545;45.302;-122.946;2023-01-23T04:12:49;102606.88;;;6.49;99.24
51468;BME280;37545;45.302;-122.946;2023-01-23T04:15:17;102604.97;;;6.47;100.00
51468;BME280;37545;45.302;-122.946;2023-01-23T04:17:46;102614.91;;;6.42;99.07
51468;BME280;37545;45.302;-122.946;2023-01-23T04:20:16;102610.09;;;6.35;99.16
51468;BME280;37545;45.302;-122.946;2023-01-23T04:22:45;102613.19;;;6.31;99.76
51468;BME280;37545;45.302;-122.946;2023-01-23T04:25:13;102592.72;;;6.21;100.00
51468;BME280;37545;45.302;-122.946;2023-01-23T04:27:42;102599.88;;;6.25;100.00
51468;BME280;37545;45.302;-122.946;2023-01-23T04:30:11;102610.72;;;6.21;99.66
51468;BME280;37545;45.302;-122.946;2023-01-23T04:32:40;102609.56;;;6.17;100.00
51468;BME280;37545;45.302;-122.946;2023-01-23T04:35:09;102606.78;;;6.14;99.29
51468;BME280;37545;45.302;-122.946;2023-01-23T04:37:39;102596.00;;;6.08;99.22
51468;BME280;37545;45.302;-122.946;2023-01-23T04:40:09;102611.84;;;6.02;100.00
51468;BME280;37545;45.302;-122.946;2023-01-23T04:42:38;102620.09;;;5.98;100.00
51468;BME280;37545;45.302;-122.946;2023-01-23T04:45:07;102625.25;;;5.98;100.00
51468;BME280;37545;45.302;-122.946;2023-01-23T04:47:36;102620.66;;;5.94;100.00
51468;BME280;37545;45.302;-122.946;2023-01-23T04:50:05;102626.28;;;5.90;100.00
51468;BME280;37545;45.302;-122.946;2023-01-23T04:52:34;102627.97;;;5.90;100.00
51468;BME280;37545;45.302;-122.946;2023-01-23T04:55:10;102627.81;;;5.88;100.00
51468;BME280;37545;45.302;-122.946;2023-01-23T04:57:39;102632.72;;;5.85;100.00
51468;BME280;37545;45.302;-122.946;2023-01-23T05:00:08;102629.28;;;5.84;100.00
51468;BME280;37545;45.302;-122.946;2023-01-23T05:02:37;102631.84;;;5.84;100.00
51468;BME280;37545;45.302;-122.946;2023-01-23T05:05:06;102644.56;;;5.83;100.00
51468;BME280;37545;45.302;-122.946;2023-01-23T05:07:35;102635.81;;;5.81;100.00
51468;BME280;37545;45.302;-122.946;2023-01-23T05:10:05;102625.44;;;5.79;100.00
51468;BME280;37545;45.302;-122.946;2023-01-23T05:12:36;102621.97;;;5.79;100.00
51468;BME280;37545;45.302;-122.946;2023-01-23T05:15:05;102616.59;;;5.76;100.00
51468;BME280;37545;45.302;-122.946;2023-01-23T05:17:34;102619.47;;;5.69;100.00
51468;BME280;37545;45.302;-122.946;2023-01-23T05:20:07;102620.34;;;5.69;100.00
51468;BME280;37545;45.302;-122.946;2023-01-23T05:22:36;102627.41;;;5.72;100.00
51468;BME280;37545;45.302;-122.946;2023-01-23T05:25:25;102620.84;;;5.75;100.00
51468;BME280;37545;45.302;-122.946;2023-01-23T05:27:59;102625.31;;;5.78;100.00
51468;BME280;37545;45.302;-122.946;2023-01-23T05:30:28;102632.50;;;5.82;100.00
51468;BME280;37545;45.302;-122.946;2023-01-23T05:32:56;102619.66;;;5.82;100.00
51468;BME280;37545;45.302;-122.946;2023-01-23T05:35:25;102623.22;;;5.84;100.00
51468;BME280;37545;45.302;-122.946;2023-01-23T05:37:53;102630.91;;;5.84;100.00
51468;BME280;37545;45.302;-122.946;2023-01-23T05:40:22;102620.91;;;5.87;100.00
51468;BME280;37545;45.302;-122.946;2023-01-23T05:42:51;102632.06;;;5.87;100.00
51468;BME280;37545;45.302;-122.946;2023-01-23T05:45:21;102622.69;;;5.88;100.00
51468;BME280;37545;45.302;-122.946;2023-01-23T05:47:50;102613.19;;;5.87;100.00
51468;BME280;37545;45.302;-122.946;2023-01-23T05:50:21;102615.41;;;5.82;100.00
51468;BME280;37545;45.302;-122.946;2023-01-23T05:52:50;102610.00;;;5.79;100.00
51468;BME280;37545;45.302;-122.946;2023-01-23T05:55:19;102606.47;;;5.77;100.00
51468;BME280;37545;45.302;-122.946;2023-01-23T05:57:47;102606.31;;;5.76;100.00
51468;BME280;37545;45.302;-122.946;2023-01-23T06:00:17;102600.28;;;5.75;100.00
51468;BME280;37545;45.302;-122.946;2023-01-23T06:02:47;102602.06;;;5.76;100.00
51468;BME280;37545;45.302;-122.946;2023-01-23T06:05:16;102606.56;;;5.79;100.00
51468;BME280;37545;45.302;-122.946;2023-01-23T06:07:45;102611.94;;;5.82;100.00
51468;BME280;37545;45.302;-122.946;2023-01-23T06:12:42;102607.03;;;5.85;100.00
51468;BME280;37545;45.302;-122.946;2023-01-23T06:15:11;102610.38;;;5.84;100.00
51468;BME280;37545;45.302;-122.946;2023-01-23T06:17:39;102610.63;;;5.87;100.00
51468;BME280;37545;45.302;-122.946;2023-01-23T06:20:10;102619.34;;;5.89;100.00
51468;BME280;37545;45.302;-122.946;2023-01-23T06:22:39;102606.25;;;5.86;100.00
51468;BME280;37545;45.302;-122.946;2023-01-23T06:25:09;102607.81;;;5.84;100.00
51468;BME280;37545;45.302;-122.946;2023-01-23T06:27:37;102602.78;;;5.85;100.00
51468;BME280;37545;45.302;-122.946;2023-01-23T06:30:07;102593.66;;;5.89;100.00
51468;BME280;37545;45.302;-122.946;2023-01-23T06:32:36;102604.16;;;5.92;100.00
51468;BME280;37545;45.302;-122.946;2023-01-23T06:35:05;102606.25;;;5.96;100.00
51468;BME280;37545;45.302;-122.946;2023-01-23T06:37:36;102607.13;;;5.97;100.00
51468;BME280;37545;45.302;-122.946;2023-01-23T06:40:05;102609.16;;;6.01;100.00
51468;BME280;37545;45.302;-122.946;2023-01-23T06:42:38;102614.53;;;6.04;100.00
51468;BME280;37545;45.302;-122.946;2023-01-23T06:45:08;102621.47;;;6.05;100.00
51468;BME280;37545;45.302;-122.946;2023-01-23T06:47:37;102613.88;;;6.06;100.00
51468;BME280;37545;45.302;-122.946;2023-01-23T06:50:06;102618.13;;;6.06;100.00
51468;BME280;37545;45.302;-122.946;2023-01-23T06:52:37;102619.16;;;6.08;100.00
51468;BME280;37545;45.302;-122.946;2023-01-23T06:55:06;102610.53;;;6.07;100.00
51468;BME280;37545;45.302;-122.946;2023-01-23T06:57:35;102615.56;;;6.06;100.00
51468;BME280;37545;45.302;-122.946;2023-01-23T07:00:04;102596.06;;;5.98;100.00
51468;BME280;37545;45.302;-122.946;2023-01-23T07:02:33;102606.16;;;6.06;100.00
51468;BME280;37545;45.302;-122.946;2023-01-23T07:05:02;102613.22;;;6.09;100.00
51468;BME280;37545;45.302;-122.946;2023-01-23T07:07:30;102618.47;;;6.11;100.00
51468;BME280;37545;45.302;-122.946;2023-01-23T07:10:01;102625.53;;;6.13;100.00
51468;BME280;37545;45.302;-122.946;2023-01-23T07:12:29;102621.41;;;6.15;100.00
51468;BME280;37545;45.302;-122.946;2023-01-23T07:14:58;102616.13;;;6.14;100.00
51468;BME280;37545;45.302;-122.946;2023-01-23T07:17:26;102611.44;;;6.08;100.00
51468;BME280;37545;45.302;-122.946;2023-01-23T07:19:55;102616.34;;;6.05;100.00
51468;BME280;37545;45.302;-122.946;2023-01-23T07:22:23;102613.41;;;6.00;100.00
51468;BME280;37545;45.302;-122.946;2023-01-23T07:24:52;102610.50;;;5.96;100.00
51468;BME280;37545;45.302;-122.946;2023-01-23T07:27:22;102602.88;;;5.97;100.00
51468;BME280;37545;45.302;-122.946;2023-01-23T07:29:51;102597.75;;;5.97;100.00
51468;BME280;37545;45.302;-122.946;2023-01-23T07:32:20;102599.56;;;5.98;100.00
51468;BME280;37545;45.302;-122.946;2023-01-23T07:34:48;102606.69;;;6.02;100.00
51468;BME280;37545;45.302;-122.946;2023-01-23T07:37:18;102612.97;;;6.06;100.00
51468;BME280;37545;45.302;-122.946;2023-01-23T07:39:47;102607.97;;;6.07;100.00
51468;BME280;37545;45.302;-122.946;2023-01-23T07:42:16;102609.75;;;6.08;100.00
51468;BME280;37545;45.302;-122.946;2023-01-23T07:44:46;102603.06;;;6.11;100.00
51468;BME280;37545;45.302;-122.946;2023-01-23T07:47:14;102600.50;;;6.11;100.00
51468;BME280;37545;45.302;-122.946;2023-01-23T07:49:43;102598.06;;;6.12;100.00
51468;BME280;37545;45.302;-122.946;2023-01-23T07:52:11;102604.06;;;6.13;100.00
51468;BME280;37545;45.302;-122.946;2023-01-23T07:54:40;102602.53;;;6.15;100.00
51468;BME280;37545;45.302;-122.946;2023-01-23T07:57:18;102607.13;;;6.19;100.00
51468;BME280;37545;45.302;-122.946;2023-01-23T07:59:48;102600.31;;;6.19;100.00
51468;BME280;37545;45.302;-122.946;2023-01-23T08:02:17;102604.66;;;6.20;100.00
51468;BME280;37545;45.302;-122.946;2023-01-23T08:04:52;102592.06;;;6.23;100.00
51468;BME280;37545;45.302;-122.946;2023-01-23T08:07:21;102597.19;;;6.23;100.00
51468;BME280;37545;45.302;-122.946;2023-01-23T08:09:49;102601.56;;;6.24;100.00
51468;BME280;37545;45.302;-122.946;2023-01-23T08:12:18;102599.88;;;6.25;100.00
51468;BME280;37545;45.302;-122.946;2023-01-23T08:14:48;102608.50;;;6.25;100.00
51468;BME280;37545;45.302;-122.946;2023-01-23T08:17:17;102593.84;;;6.24;100.00
51468;BME280;37545;45.302;-122.946;2023-01-23T08:19:46;102607.56;;;6.25;100.00
51468;BME280;37545;45.302;-122.946;2023-01-23T08:22:14;102604.25;;;6.26;100.00
51468;BME280;37545;45.302;-122.946;2023-01-23T08:24:43;102596.75;;;6.29;100.00
51468;BME280;37545;45.302;-122.946;2023-01-23T08:27:12;102589.03;;;6.29;100.00
51468;BME280;37545;45.302;-122.946;2023-01-23T08:29:41;102591.63;;;6.29;100.00
51468;BME280;37545;45.302;-122.946;2023-01-23T08:32:11;102590.84;;;6.30;100.00
51468;BME280;37545;45.302;-122.946;2023-01-23T08:34:40;102589.25;;;6.32;100.00
51468;BME280;37545;45.302;-122.946;2023-01-23T08:37:08;102583.38;;;6.33;100.00
51468;BME280;37545;45.302;-122.946;2023-01-23T08:39:37;102579.09;;;6.34;100.00
51468;BME280;37545;45.302;-122.946;2023-01-23T08:42:05;102579.25;;;6.35;100.00
51468;BME280;37545;45.302;-122.946;2023-01-23T08:44:34;102571.41;;;6.34;100.00
51468;BME280;37545;45.302;-122.946;2023-01-23T08:47:03;102567.72;;;6.30;100.00
51468;BME280;37545;45.302;-122.946;2023-01-23T08:49:33;102567.47;;;6.27;100.00
51468;BME280;37545;45.302;-122.946;2023-01-23T08:52:01;102567.38;;;6.25;100.00
51468;BME280;37545;45.302;-122.946;2023-01-23T08:54:31;102565.69;;;6.26;100.00
51468;BME280;37545;45.302;-122.946;2023-01-23T08:57:00;102573.63;;;6.29;100.00
51468;BME280;37545;45.302;-122.946;2023-01-23T08:59:28;102573.75;;;6.31;100.00
51468;BME280;37545;45.302;-122.946;2023-01-23T09:01:57;102567.72;;;6.30;100.00
51468;BME280;37545;45.302;-122.946;2023-01-23T09:04:26;102571.03;;;6.29;100.00
51468;BME280;37545;45.302;-122.946;2023-01-23T09:07:02;102576.19;;;6.29;100.00
51468;BME280;37545;45.302;-122.946;2023-01-23T09:09:31;102573.75;;;6.31;100.00
51468;BME280;37545;45.302;-122.946;2023-01-23T09:11:59;102567.72;;;6.30;100.00
51468;BME280;37545;45.302;-122.946;2023-01-23T09:14:28;102565.91;;;6.29;100.00
51468;BME280;37545;45.302;-122.946;2023-01-23T09:16:56;102565.03;;;6.28;100.00
51468;BME280;37545;45.302;-122.946;2023-01-23T09:19:25;102576.06;;;6.27;100.00
51468;BME280;37545;45.302;-122.946;2023-01-23T09:21:53;102580.31;;;6.27;100.00
51468;BME280;37545;45.302;-122.946;2023-01-23T09:24:24;102586.34;;;6.27;100.00
51468;BME280;37545;45.302;-122.946;2023-01-23T09:26:53;102588.91;;;6.27;100.00
51468;BME280;37545;45.302;-122.946;2023-01-23T09:29:22;102591.41;;;6.26;100.00
51468;BME280;37545;45.302;-122.946;2023-01-23T09:31:50;102592.94;;;6.24;100.00
51468;BME280;37545;45.302;-122.946;2023-01-23T09:34:19;102607.56;;;6.25;100.00
51468;BME280;37545;45.302;-122.946;2023-01-23T09:36:47;102601.41;;;6.23;100.00
51468;BME280;37545;45.302;-122.946;2023-01-23T09:39:16;102605.56;;;6.21;100.00
51468;BME280;37545;45.302;-122.946;2023-01-23T09:41:47;102600.44;;;6.21;100.00
51468;BME280;37545;45.302;-122.946;2023-01-23T09:44:19;102598.75;;;6.21;100.00
51468;BME280;37545;45.302;-122.946;2023-01-23T09:46:50;102594.28;;;6.19;100.00
51468;BME280;37545;45.302;-122.946;2023-01-23T09:49:24;102599.16;;;6.16;100.00
51468;BME280;37545;45.302;-122.946;2023-01-23T09:51:57;102592.03;;;6.12;100.00
51468;BME280;37545;45.302;-122.946;2023-01-23T09:54:32;102588.31;;;6.08;100.00
51468;BME280;37545;45.302;-122.946;2023-01-23T09:57:12;102587.16;;;6.04;100.00
51468;BME280;37545;45.302;-122.946;2023-01-23T09:59:44;102582.81;;;6.03;100.00
51468;BME280;37545;45.302;-122.946;2023-01-23T10:02:16;102584.38;;;6.01;100.00
51468;BME280;37545;45.302;-122.946;2023-01-23T10:04:46;102585.03;;;5.99;100.00
51468;BME280;37545;45.302;-122.946;2023-01-23T10:07:34;102574.63;;;5.97;100.00
51468;BME280;37545;45.302;-122.946;2023-01-23T10:10:23;102578.59;;;5.94;100.00
51468;BME280;37545;45.302;-122.946;2023-01-23T10:13:06;102571.81;;;5.94;100.00
51468;BME280;37545;45.302;-122.946;2023-01-23T10:18:48;102575.09;;;6.03;100.00
51468;BME280;37545;45.302;-122.946;2023-01-23T10:21:24;102583.03;;;6.06;100.00
51468;BME280;37545;45.302;-122.946;2023-01-23T10:24:01;102582.28;;;6.07;100.00
51468;BME280;37545;45.302;-122.946;2023-01-23T10:26:41;102569.53;;;6.09;100.00
51468;BME280;37545;45.302;-122.946;2023-01-23T10:29:16;102572.22;;;6.11;100.00
51468;BME280;37545;45.302;-122.946;2023-01-23T10:31:52;102573.00;;;6.10;100.00
51468;BME280;37545;45.302;-122.946;2023-01-23T10:34:27;102580.25;;;6.03;100.00
51468;BME280;37545;45.302;-122.946;2023-01-23T10:37:08;102576.53;;;6.00;100.00
51468;BME280;37545;45.302;-122.946;2023-01-23T10:39:46;102591.06;;;5.99;100.00
51468;BME280;37545;45.302;-122.946;2023-01-23T10:42:19;102590.16;;;5.99;100.00
51468;BME280;37545;45.302;-122.946;2023-01-23T10:44:50;102598.63;;;5.98;100.00
51468;BME280;37545;45.302;-122.946;2023-01-23T10:47:23;102580.56;;;5.96;100.00
51468;BME280;37545;45.302;-122.946;2023-01-23T10:49:52;102588.88;;;5.94;100.00
51468;BME280;37545;45.302;-122.946;2023-01-23T10:52:32;102597.25;;;5.91;100.00
51468;BME280;37545;45.302;-122.946;2023-01-23T10:55:02;102594.44;;;5.88;100.00
51468;BME280;37545;45.302;-122.946;2023-01-23T10:57:42;102584.22;;;5.78;100.00
51468;BME280;37545;45.302;-122.946;2023-01-23T11:00:23;102592.94;;;5.80;100.00
51468;BME280;37545;45.302;-122.946;2023-01-23T11:02:53;102603.75;;;5.76;100.00
51468;BME280;37545;45.302;-122.946;2023-01-23T11:05:36;102602.50;;;5.71;100.00
51468;BME280;37545;45.302;-122.946;2023-01-23T11:08:22;102599.66;;;5.67;100.00
51468;BME280;37545;45.302;-122.946;2023-01-23T11:10:52;102597.53;;;5.62;100.00
51468;BME280;37545;45.302;-122.946;2023-01-23T11:13:28;102596.38;;;5.58;100.00
51468;BME280;37545;45.302;-122.946;2023-01-23T11:15:59;102594.34;;;5.54;100.00
51468;BME280;37545;45.302;-122.946;2023-01-23T11:18:31;102585.81;;;5.43;100.00
51468;BME280;37545;45.302;-122.946;2023-01-23T11:21:00;102577.47;;;5.36;100.00
51468;BME280;37545;45.302;-122.946;2023-01-23T11:23:30;102570.72;;;5.26;100.00
51468;BME280;37545;45.302;-122.946;2023-01-23T11:26:00;102570.88;;;5.17;100.00
51468;BME280;37545;45.302;-122.946;2023-01-23T11:28:32;102587.81;;;5.15;100.00
51468;BME280;37545;45.302;-122.946;2023-01-23T11:31:05;102586.16;;;5.16;100.00
51468;BME280;37545;45.302;-122.946;2023-01-23T11:33:42;102584.63;;;5.18;100.00
51468;BME280;37545;45.302;-122.946;2023-01-23T11:36:37;102576.13;;;5.19;100.00
51468;BME280;37545;45.302;-122.946;2023-01-23T11:39:14;102577.81;;;5.18;100.00
51468;BME280;37545;45.302;-122.946;2023-01-23T11:41:45;102586.53;;;5.20;100.00
51468;BME280;37545;45.302;-122.946;2023-01-23T11:44:16;102584.63;;;5.18;100.00
51468;BME280;37545;45.302;-122.946;2023-01-23T11:47:01;102574.22;;;5.16;100.00
51468;BME280;37545;45.302;-122.946;2023-01-23T11:49:53;102574.09;;;5.15;100.00
51468;BME280;37545;45.302;-122.946;2023-01-23T11:52:34;102567.84;;;5.11;100.00
51468;BME280;37545;45.302;-122.946;2023-01-23T11:55:23;102548.88;;;4.99;100.00
51468;BME280;37545;45.302;-122.946;2023-01-23T11:58:05;102546.84;;;4.85;100.00
51468;BME280;37545;45.302;-122.946;2023-01-23T12:00:43;102554.81;;;4.77;100.00
51468;BME280;37545;45.302;-122.946;2023-01-23T12:06:08;102583.19;;;4.79;100.00
51468;BME280;37545;45.302;-122.946;2023-01-23T12:08:46;102584.06;;;4.79;100.00
51468;BME280;37545;45.302;-122.946;2023-01-23T12:11:17;102577.66;;;4.74;100.00
51468;BME280;37545;45.302;-122.946;2023-01-23T12:14:02;102587.41;;;4.68;100.00
51468;BME280;37545;45.302;-122.946;2023-01-23T12:16:54;102595.09;;;4.68;100.00
51468;BME280;37545;45.302;-122.946;2023-01-23T12:19:36;102596.78;;;4.68;100.00
51468;BME280;37545;45.302;-122.946;2023-01-23T12:22:14;102594.31;;;4.69;100.00
51468;BME280;37545;45.302;-122.946;2023-01-23T12:24:56;102599.44;;;4.69;100.00
51468;BME280;37545;45.302;-122.946;2023-01-23T12:27:35;102607.03;;;4.68;100.00
51468;BME280;37545;45.302;-122.946;2023-01-23T12:30:23;102621.41;;;4.66;100.00
51468;BME280;37545;45.302;-122.946;2023-01-23T12:33:05;102610.09;;;4.64;100.00
51468;BME280;37545;45.302;-122.946;2023-01-23T12:35:47;102609.88;;;4.60;100.00
51468;BME280;37545;45.302;-122.946;2023-01-23T12:38:30;102620.72;;;4.58;100.00
51468;BME280;37545;45.302;-122.946;2023-01-23T12:41:10;102625.75;;;4.56;100.00
51468;BME280;37545;45.302;-122.946;2023-01-23T12:43:46;102623.06;;;4.55;100.00
51468;BME280;37545;45.302;-122.946;2023-01-23T12:46:21;102621.78;;;4.50;100.00
51468;BME280;37545;45.302;-122.946;2023-01-23T12:48:55;102606.13;;;4.36;100.00
51468;BME280;37545;45.302;-122.946;2023-01-23T12:51:30;102594.97;;;4.26;100.00
51468;BME280;37545;45.302;-122.946;2023-01-23T12:54:06;102555.13;;;4.09;100.00